createdAt,value
2023-01-12T00:01:31.769Z,100297.20
2023-01-12T00:03:58.848Z,100296.91
2023-01-12T00:06:25.641Z,100298.97
2023-01-12T00:08:52.370Z,100299.44
2023-01-12T00:11:19.928Z,100299.05
2023-01-12T00:13:46.337Z,100302.14
2023-01-12T00:16:37.026Z,100300.53
2023-01-12T00:19:12.326Z,100299.27
2023-01-12T00:21:53.649Z,100305.64
2023-01-12T00:24:20.014Z,100309.13
2023-01-12T00:26:47.867Z,100311.77
2023-01-12T00:29:15.234Z,100316.95
2023-01-12T00:31:41.787Z,100320.94
2023-01-12T00:34:08.473Z,100317.84
2023-01-12T00:36:35.002Z,100320.48
2023-01-12T00:39:01.399Z,100320.36
2023-01-12T00:41:46.440Z,100316.58
2023-01-12T00:44:31.343Z,100314.26
2023-01-12T00:46:57.721Z,100310.91
2023-01-12T00:49:24.081Z,100317.30
2023-01-12T00:51:50.414Z,100320.80
2023-01-12T00:54:16.742Z,100322.99
2023-01-12T00:56:43.111Z,100324.25
2023-01-12T00:59:09.448Z,100326.79
2023-01-12T01:01:35.820Z,100329.23
2023-01-12T01:04:02.223Z,100327.06
2023-01-12T01:06:28.555Z,100324.81
2023-01-12T01:08:54.816Z,100327.08
2023-01-12T01:11:21.507Z,100325.92
2023-01-12T01:13:48.419Z,100324.21
2023-01-12T01:16:16.524Z,100319.95
2023-01-12T01:18:43.140Z,100316.79
2023-01-12T01:21:11.162Z,100316.85
2023-01-12T01:23:37.977Z,100312.88
2023-01-12T01:26:10.511Z,100310.89
2023-01-12T01:28:36.906Z,100311.80
2023-01-12T01:31:09.212Z,100309.80
2023-01-12T01:33:35.770Z,100308.66
2023-01-12T01:36:03.092Z,100310.52
2023-01-12T01:38:29.554Z,100310.79
2023-01-12T01:40:56.298Z,100312.25
2023-01-12T01:43:25.182Z,100312.67
2023-01-12T01:46:00.799Z,100310.20
2023-01-12T01:48:28.865Z,100312.77
2023-01-12T01:51:01.183Z,100310.17
2023-01-12T01:53:31.506Z,100311.85
2023-01-12T01:56:06.044Z,100312.48
2023-01-12T01:58:38.544Z,100309.73
2023-01-12T02:01:05.795Z,100310.40
2023-01-12T02:03:36.612Z,100311.09
2023-01-12T02:06:06.120Z,100309.51
2023-01-12T02:08:53.726Z,100314.09
2023-01-12T02:11:39.920Z,100315.34
2023-01-12T02:14:24.990Z,100315.51
2023-01-12T02:16:57.617Z,100322.38
2023-01-12T02:19:45.231Z,100327.70
2023-01-12T02:22:30.323Z,100331.83
2023-01-12T02:25:24.558Z,100332.17
2023-01-12T02:28:16.492Z,100335.83
2023-01-12T02:31:21.446Z,100338.59
2023-01-12T02:34:03.298Z,100333.62
2023-01-12T02:37:21.170Z,100329.06
2023-01-12T02:39:58.269Z,100332.30
2023-01-12T02:42:42.665Z,100331.35
2023-01-12T02:45:27.728Z,100327.74
2023-01-12T02:48:06.326Z,100339.40
2023-01-12T02:50:54.534Z,100341.45
2023-01-12T02:53:37.892Z,100339.01
2023-01-12T02:56:06.989Z,100338.49
2023-01-12T02:58:43.340Z,100344.05
2023-01-12T03:01:11.374Z,100344.77
2023-01-12T03:03:39.120Z,100344.21
2023-01-12T03:06:06.695Z,100347.23
2023-01-12T03:08:36.893Z,100353.94
2023-01-12T03:11:14.596Z,100356.72
2023-01-12T03:13:46.343Z,100359.38
2023-01-12T03:16:15.268Z,100360.44
2023-01-12T03:19:01.590Z,100367.48
2023-01-12T03:21:38.176Z,100368.54
2023-01-12T03:24:09.462Z,100367.58
2023-01-12T03:26:40.828Z,100366.89
2023-01-12T03:29:13.019Z,100359.20
2023-01-12T03:31:40.185Z,100369.55
2023-01-12T03:34:06.981Z,100367.53
2023-01-12T03:36:52.755Z,100365.70
2023-01-12T03:39:29.746Z,100366.86
2023-01-12T03:42:05.931Z,100370.42
2023-01-12T03:44:39.380Z,100372.28
2023-01-12T03:47:28.764Z,100375.70
2023-01-12T03:50:17.148Z,100380.18
2023-01-12T03:52:45.267Z,100380.67
2023-01-12T03:55:16.233Z,100376.20
2023-01-12T03:57:44.035Z,100374.05
2023-01-12T04:00:12.441Z,100375.35
2023-01-12T04:02:45.928Z,100373.42
2023-01-12T04:05:14.177Z,100375.84
2023-01-12T04:07:40.476Z,100379.14
2023-01-12T04:10:07.550Z,100377.10
2023-01-12T04:12:33.772Z,100375.26
2023-01-12T04:15:00.032Z,100372.48
2023-01-12T04:17:27.343Z,100373.19
2023-01-12T04:19:53.602Z,100374.52
2023-01-12T04:22:38.608Z,100382.83
2023-01-12T04:25:05.146Z,100379.27
2023-01-12T04:27:31.358Z,100380.08
2023-01-12T04:29:57.918Z,100381.13
2023-01-12T04:32:24.453Z,100383.16
2023-01-12T04:34:50.772Z,100386.19
2023-01-12T04:37:18.018Z,100389.73
2023-01-12T04:39:44.295Z,100393.06
2023-01-12T04:42:30.593Z,100391.84
2023-01-12T04:44:56.860Z,100397.55
2023-01-12T04:47:23.182Z,100398.41
2023-01-12T04:49:49.419Z,100397.81
2023-01-12T04:52:15.760Z,100399.82
2023-01-12T04:54:41.990Z,100399.45
2023-01-12T04:57:08.372Z,100397.39
2023-01-12T04:59:34.814Z,100392.91
2023-01-12T05:02:01.198Z,100390.05
2023-01-12T05:04:27.697Z,100389.14
2023-01-12T05:06:54.119Z,100388.42
2023-01-12T05:09:38.746Z,100387.40
2023-01-12T05:12:05.244Z,100392.21
2023-01-12T05:14:31.491Z,100391.37
2023-01-12T05:16:58.850Z,100395.29
2023-01-12T05:19:25.153Z,100403.75
2023-01-12T05:21:51.456Z,100399.12
2023-01-12T05:24:18.015Z,100397.79
2023-01-12T05:26:44.494Z,100394.59
2023-01-12T05:29:11.176Z,100399.76
2023-01-12T05:31:37.575Z,100397.09
2023-01-12T05:34:04.002Z,100396.19
2023-01-12T05:36:30.307Z,100399.23
2023-01-12T05:38:56.687Z,100409.67
2023-01-12T05:41:23.002Z,100415.95
2023-01-12T05:43:49.684Z,100412.00
2023-01-12T05:46:29.992Z,100413.05
2023-01-12T05:48:57.374Z,100415.55
2023-01-12T05:51:25.526Z,100411.55
2023-01-12T05:53:51.807Z,100409.88
2023-01-12T05:56:25.046Z,100419.86
2023-01-12T05:58:53.809Z,100416.39
2023-01-12T06:01:20.805Z,100418.59
2023-01-12T06:03:52.176Z,100427.26
2023-01-12T06:06:19.579Z,100422.77
2023-01-12T06:08:46.402Z,100421.36
2023-01-12T06:11:31.951Z,100424.40
2023-01-12T06:13:59.845Z,100428.66
2023-01-12T06:16:27.273Z,100427.90
2023-01-12T06:18:54.014Z,100434.65
2023-01-12T06:21:20.451Z,100439.77
2023-01-12T06:23:46.701Z,100443.60
2023-01-12T06:26:13.133Z,100440.84
2023-01-12T06:28:39.974Z,100443.75
2023-01-12T06:31:09.244Z,100445.48
2023-01-12T06:33:36.066Z,100443.33
2023-01-12T06:36:03.393Z,100448.36
2023-01-12T06:38:31.723Z,100449.72
2023-01-12T06:41:03.659Z,100445.83
2023-01-12T06:43:30.116Z,100446.67
2023-01-12T06:45:56.643Z,100444.13
2023-01-12T06:48:25.178Z,100439.97
2023-01-12T06:51:00.448Z,100438.91
2023-01-12T06:53:26.831Z,100431.51
2023-01-12T06:55:53.089Z,100432.84
2023-01-12T06:58:19.418Z,100432.56
2023-01-12T07:00:45.780Z,100440.09
2023-01-12T07:03:17.612Z,100441.61
2023-01-12T07:05:44.619Z,100449.09
2023-01-12T07:08:15.172Z,100450.58
2023-01-12T07:10:42.290Z,100453.19
2023-01-12T07:13:08.670Z,100464.52
2023-01-12T07:15:35.221Z,100470.08
2023-01-12T07:18:01.817Z,100469.36
2023-01-12T07:20:28.235Z,100468.75
2023-01-12T07:22:55.170Z,100471.45
2023-01-12T07:25:21.478Z,100474.11
2023-01-12T07:27:49.625Z,100476.00
2023-01-12T07:30:16.022Z,100478.92
2023-01-12T07:32:42.293Z,100483.71
2023-01-12T07:35:08.746Z,100484.77
2023-01-12T07:37:35.138Z,100487.35
2023-01-12T07:40:01.360Z,100484.20
2023-01-12T07:42:27.782Z,100484.16
2023-01-12T07:44:54.171Z,100484.86
2023-01-12T07:47:20.521Z,100479.94
2023-01-12T07:49:46.820Z,100479.33
2023-01-12T07:52:13.742Z,100482.52
2023-01-12T07:54:40.104Z,100485.52
2023-01-12T07:57:08.447Z,100490.73
2023-01-12T07:59:34.764Z,100496.10
2023-01-12T08:02:01.148Z,100498.11
2023-01-12T08:04:27.483Z,100500.96
2023-01-12T08:06:53.782Z,100500.08
2023-01-12T08:09:20.034Z,100503.73
2023-01-12T08:11:46.325Z,100507.80
2023-01-12T08:14:23.595Z,100507.57
2023-01-12T08:16:51.119Z,100511.92
2023-01-12T08:19:23.169Z,100513.08
2023-01-12T08:21:57.907Z,100516.30
2023-01-12T08:24:38.993Z,100512.48
2023-01-12T08:27:07.561Z,100511.57
2023-01-12T08:29:46.538Z,100511.53
2023-01-12T08:32:15.563Z,100513.13
2023-01-12T08:34:44.149Z,100517.02
2023-01-12T08:37:13.408Z,100521.18
2023-01-12T08:39:40.379Z,100522.21
2023-01-12T08:42:06.987Z,100518.99
2023-01-12T08:44:34.758Z,100511.20
2023-01-12T08:47:03.258Z,100514.35
2023-01-12T09:01:19.883Z,100526.50
2023-01-12T09:03:48.552Z,100531.17
2023-01-12T09:06:23.768Z,100527.81
2023-01-12T09:08:56.552Z,100526.04
2023-01-12T09:11:25.782Z,100521.34
2023-01-12T09:13:53.537Z,100518.19
2023-01-12T09:16:21.551Z,100512.84
2023-01-12T09:18:49.241Z,100510.02
2023-01-12T09:21:19.490Z,100507.41
2023-01-12T09:23:52.662Z,100511.14
2023-01-12T09:26:23.595Z,100507.86
2023-01-12T09:28:51.637Z,100503.16
2023-01-12T09:31:22.700Z,100501.05
2023-01-12T09:33:50.582Z,100498.98
2023-01-12T09:36:20.991Z,100504.21
2023-01-12T09:38:49.909Z,100504.44
2023-01-12T09:41:43.322Z,100504.74
2023-01-12T09:44:48.490Z,100498.86
2023-01-12T09:47:28.193Z,100491.84
2023-01-12T09:50:16.405Z,100483.27
2023-01-12T09:52:55.695Z,100478.69
2023-01-12T09:55:26.149Z,100472.80
2023-01-12T09:57:56.604Z,100469.67
2023-01-12T10:00:24.539Z,100472.22
2023-01-12T10:03:00.028Z,100472.02
2023-01-12T10:05:47.819Z,100470.52
2023-01-12T10:08:38.201Z,100469.71
2023-01-12T10:11:14.060Z,100464.98
2023-01-12T10:14:00.297Z,100463.51
2023-01-12T10:17:05.528Z,100461.64
2023-01-12T10:20:00.069Z,100455.58
2023-01-12T10:22:44.027Z,100458.66
2023-01-12T10:25:27.363Z,100457.55
2023-01-12T10:27:58.036Z,100453.06
2023-01-12T10:30:32.081Z,100459.72
2023-01-12T10:33:10.640Z,100457.01
2023-01-12T10:35:48.654Z,100452.52
2023-01-12T10:38:27.345Z,100449.69
2023-01-12T10:41:17.234Z,100447.73
2023-01-12T10:43:53.060Z,100444.73
2023-01-12T10:46:22.406Z,100444.27
2023-01-12T10:48:53.073Z,100441.58
2023-01-12T10:51:27.918Z,100441.29
2023-01-12T10:54:17.653Z,100440.55
2023-01-12T10:57:01.966Z,100434.75
2023-01-12T10:59:33.187Z,100434.19
2023-01-12T11:02:07.267Z,100431.42
2023-01-12T11:04:45.626Z,100428.88
2023-01-12T11:07:16.481Z,100424.70
2023-01-12T11:09:44.391Z,100422.76
2023-01-12T11:12:37.904Z,100420.75
2023-01-12T11:15:12.101Z,100417.36
2023-01-12T11:17:46.970Z,100422.00
2023-01-12T11:20:28.680Z,100419.95
2023-01-12T11:23:01.172Z,100411.57
2023-01-12T11:25:34.347Z,100406.73
2023-01-12T11:28:07.395Z,100402.53
2023-01-12T11:30:45.926Z,100405.16
2023-01-12T11:33:19.943Z,100404.05
2023-01-12T11:36:06.491Z,100398.87
2023-01-12T11:38:40.940Z,100398.94
2023-01-12T11:41:26.948Z,100392.84
2023-01-12T11:44:20.058Z,100380.31
2023-01-12T11:46:59.284Z,100374.05
2023-01-12T11:49:34.736Z,100371.44
2023-01-12T11:52:02.986Z,100372.38
2023-01-12T11:54:31.879Z,100366.70
2023-01-12T11:57:21.040Z,100369.77
2023-01-12T11:59:57.919Z,100364.05
2023-01-12T12:02:54.530Z,100366.19
2023-01-12T12:05:22.119Z,100366.77
2023-01-12T12:08:25.294Z,100361.05
2023-01-12T12:10:55.948Z,100362.46
2023-01-12T12:13:47.503Z,100363.71
2023-01-12T12:16:23.447Z,100369.45
2023-01-12T12:19:00.169Z,100367.51
2023-01-12T12:21:30.582Z,100363.38
2023-01-12T12:24:17.016Z,100362.44
2023-01-12T12:26:56.380Z,100360.03
2023-01-12T12:29:40.241Z,100359.69
2023-01-12T12:32:26.984Z,100358.64
2023-01-12T12:35:16.089Z,100359.67
2023-01-12T12:38:29.592Z,100359.89
2023-01-12T12:41:31.321Z,100356.59
2023-01-12T12:44:34.383Z,100353.90
2023-01-12T12:47:30.620Z,100349.29
2023-01-12T12:50:00.661Z,100347.02
2023-01-12T12:52:35.995Z,100343.95
2023-01-12T12:55:05.035Z,100342.45
2023-01-12T12:57:53.030Z,100340.61
2023-01-12T13:00:40.264Z,100341.47
2023-01-12T13:03:09.457Z,100347.45
2023-01-12T13:05:48.212Z,100343.53
2023-01-12T13:08:27.362Z,100334.43
2023-01-12T13:10:57.720Z,100336.79
2023-01-12T13:13:27.411Z,100329.91
2023-01-12T13:16:20.472Z,100325.09
2023-01-12T13:18:51.418Z,100317.34
2023-01-12T13:21:29.093Z,100309.08
2023-01-12T13:24:14.948Z,100309.21
2023-01-12T13:26:44.636Z,100308.48
2023-01-12T13:29:24.557Z,100310.38
2023-01-12T13:31:56.631Z,100312.21
2023-01-12T13:34:36.601Z,100311.62
2023-01-12T13:37:22.408Z,100314.15
2023-01-12T13:40:16.437Z,100308.33
2023-01-12T13:43:04.253Z,100302.98
2023-01-12T13:45:33.523Z,100304.83
2023-01-12T13:48:01.380Z,100302.13
2023-01-12T13:50:29.549Z,100303.64
2023-01-12T13:52:59.612Z,100304.39
2023-01-12T13:55:33.547Z,100299.02
2023-01-12T13:58:16.857Z,100297.95
2023-01-12T14:00:55.388Z,100296.75
2023-01-12T14:03:37.416Z,100295.25
2023-01-12T14:06:27.457Z,100289.73
2023-01-12T14:09:01.377Z,100294.40
2023-01-12T14:11:47.127Z,100291.44
2023-01-12T14:14:58.040Z,100284.34
2023-01-12T14:17:49.206Z,100276.42
2023-01-12T14:20:23.781Z,100266.84
2023-01-12T14:23:12.760Z,100268.44
2023-01-12T14:25:41.039Z,100270.58
2023-01-12T14:28:23.149Z,100272.88
2023-01-12T14:30:53.243Z,100272.84
2023-01-12T14:33:24.954Z,100270.48
2023-01-12T14:35:56.193Z,100268.17
2023-01-12T14:38:27.822Z,100267.05
2023-01-12T14:41:02.517Z,100266.73
2023-01-12T14:43:54.037Z,100257.69
2023-01-12T14:46:33.906Z,100260.39
2023-01-12T14:49:04.045Z,100255.73
2023-01-12T14:51:35.628Z,100254.45
2023-01-12T14:54:06.295Z,100253.34
2023-01-12T14:56:50.231Z,100251.98
2023-01-12T14:59:23.684Z,100255.67
2023-01-12T15:02:07.729Z,100258.13
2023-01-12T15:04:35.490Z,100257.35
2023-01-12T15:07:08.273Z,100256.06
2023-01-12T15:09:56.093Z,100251.64
2023-01-12T15:12:30.488Z,100245.31
2023-01-12T15:15:18.232Z,100245.02
2023-01-12T15:18:05.397Z,100246.14
2023-01-12T15:21:02.999Z,100250.90
2023-01-12T15:23:54.595Z,100259.15
2023-01-12T15:26:22.672Z,100256.89
2023-01-12T15:28:50.888Z,100263.26
2023-01-12T15:31:21.406Z,100263.64
2023-01-12T15:33:49.220Z,100266.74
2023-01-12T15:36:17.203Z,100273.92
2023-01-12T15:38:44.874Z,100272.54
2023-01-12T15:41:41.314Z,100272.48
2023-01-12T15:44:20.507Z,100272.67
2023-01-12T15:46:48.353Z,100273.03
2023-01-12T15:49:16.408Z,100278.86
2023-01-12T15:51:47.553Z,100279.70
2023-01-12T15:54:18.265Z,100282.06
2023-01-12T15:56:46.710Z,100282.01
2023-01-12T15:59:14.812Z,100282.29
2023-01-12T16:01:47.976Z,100281.89
2023-01-12T16:04:45.800Z,100278.77
2023-01-12T16:07:05.787Z,100272.31
2023-01-12T16:09:33.538Z,100268.29
2023-01-12T16:12:01.217Z,100270.02
2023-01-12T16:14:28.951Z,100267.10
2023-01-12T16:16:56.583Z,100263.46
2023-01-12T16:19:24.310Z,100261.20
2023-01-12T16:21:54.950Z,100255.96
2023-01-12T16:24:26.577Z,100258.23
2023-01-12T16:26:54.463Z,100256.67
2023-01-12T16:29:23.725Z,100256.52
2023-01-12T16:31:51.680Z,100253.51
2023-01-12T16:34:22.841Z,100256.55
2023-01-12T16:36:50.829Z,100252.40
2023-01-12T16:39:18.813Z,100252.74
2023-01-12T16:41:46.707Z,100250.80
2023-01-12T16:44:14.414Z,100248.55
2023-01-12T16:46:42.809Z,100254.27
2023-01-12T16:49:10.543Z,100255.74
2023-01-12T16:51:38.300Z,100253.46
2023-01-12T16:54:06.044Z,100253.42
2023-01-12T16:56:33.705Z,100255.59
2023-01-12T16:59:01.489Z,100252.11
2023-01-12T17:01:29.975Z,100251.23
2023-01-12T17:03:58.153Z,100248.16
2023-01-12T17:06:27.994Z,100249.68
2023-01-12T17:08:55.955Z,100241.03
2023-01-12T17:11:24.310Z,100240.10
2023-01-12T17:13:54.744Z,100240.23
2023-01-12T17:16:24.751Z,100239.10
2023-01-12T17:18:53.754Z,100237.15
2023-01-12T17:21:22.115Z,100238.86
2023-01-12T17:23:49.954Z,100239.05
2023-01-12T17:26:19.099Z,100231.45
2023-01-12T17:28:47.333Z,100228.48
2023-01-12T17:31:17.695Z,100225.95
2023-01-12T17:33:46.937Z,100220.75
2023-01-12T17:36:14.852Z,100220.52
2023-01-12T17:38:42.566Z,100215.56
2023-01-12T17:41:35.177Z,100213.76
2023-01-12T17:44:05.159Z,100212.01
2023-01-12T17:46:34.159Z,100210.27
2023-01-12T17:49:06.662Z,100205.02
2023-01-12T17:51:35.007Z,100211.70
2023-01-12T17:54:04.685Z,100208.67
2023-01-12T17:56:33.868Z,100208.27
2023-01-12T17:59:03.074Z,100206.38
2023-01-12T18:01:34.550Z,100200.00
2023-01-12T18:04:03.128Z,100202.27
2023-01-12T18:06:31.026Z,100198.13
2023-01-12T18:09:01.463Z,100198.16
2023-01-12T18:11:31.227Z,100197.84
2023-01-12T18:14:01.188Z,100196.77
2023-01-12T18:16:29.768Z,100195.24
2023-01-12T18:18:58.185Z,100195.70
2023-01-12T18:21:27.644Z,100196.92
2023-01-12T18:23:56.369Z,100190.20
2023-01-12T18:26:27.107Z,100195.67
2023-01-12T18:28:56.501Z,100188.16
2023-01-12T18:31:28.538Z,100191.69
2023-01-12T18:34:01.877Z,100189.91
2023-01-12T18:36:30.865Z,100188.02
2023-01-12T18:38:59.040Z,100187.63
2023-01-12T18:41:45.797Z,100184.98
2023-01-12T18:44:13.806Z,100179.48
2023-01-12T18:47:09.542Z,100175.02
2023-01-12T18:49:39.468Z,100171.73
2023-01-12T18:52:30.428Z,100171.98
2023-01-12T18:54:58.992Z,100174.59
2023-01-12T18:57:29.813Z,100176.56
2023-01-12T19:00:00.516Z,100170.98
2023-01-12T19:02:29.929Z,100166.54
2023-01-12T19:05:16.934Z,100163.82
2023-01-12T19:07:59.862Z,100167.39
2023-01-12T19:10:29.020Z,100165.41
2023-01-12T19:13:17.317Z,100170.19
2023-01-12T19:16:03.644Z,100166.23
2023-01-12T19:18:31.572Z,100161.77
2023-01-12T19:21:22.286Z,100155.80
2023-01-12T19:24:08.769Z,100154.71
2023-01-12T19:26:55.092Z,100150.86
2023-01-12T19:29:22.765Z,100157.17
2023-01-12T19:31:50.504Z,100158.34
2023-01-12T19:34:18.869Z,100154.71
2023-01-12T19:36:46.620Z,100156.29
2023-01-12T19:39:15.285Z,100157.19
2023-01-12T19:42:03.755Z,100154.64
2023-01-12T19:44:31.476Z,100152.40
2023-01-12T19:46:59.158Z,100147.94
2023-01-12T19:49:26.864Z,100150.34
2023-01-12T19:51:54.703Z,100149.41
2023-01-12T19:54:22.409Z,100148.56
2023-01-12T19:56:50.183Z,100152.54
2023-01-12T19:59:18.273Z,100154.21
2023-01-12T20:01:46.143Z,100147.34
2023-01-12T20:04:14.160Z,100151.46
2023-01-12T20:06:43.384Z,100147.73
2023-01-12T20:09:12.266Z,100146.19
2023-01-12T20:11:41.056Z,100144.27
2023-01-12T20:14:08.962Z,100144.58
2023-01-12T20:16:36.842Z,100145.86
2023-01-12T20:19:04.580Z,100147.96
2023-01-12T20:21:32.626Z,100148.27
2023-01-12T20:24:03.153Z,100148.95
2023-01-12T20:26:31.418Z,100145.98
2023-01-12T20:28:59.841Z,100147.86
2023-01-12T20:31:28.058Z,100143.33
2023-01-12T20:33:55.781Z,100143.33
2023-01-12T20:36:23.521Z,100141.74
2023-01-12T20:38:51.858Z,100140.41
2023-01-12T20:41:19.982Z,100144.29
2023-01-12T20:43:47.792Z,100140.89
2023-01-12T20:46:16.211Z,100133.59
2023-01-12T20:48:45.006Z,100134.33
2023-01-12T20:51:15.850Z,100138.52
2023-01-12T20:53:44.213Z,100136.90
2023-01-12T20:56:12.344Z,100137.55
2023-01-12T20:58:40.288Z,100143.13
2023-01-12T21:01:10.357Z,100139.17
2023-01-12T21:03:38.551Z,100138.00
2023-01-12T21:06:10.930Z,100136.23
2023-01-12T21:08:40.010Z,100141.80
2023-01-12T21:11:07.736Z,100130.69
2023-01-12T21:13:36.212Z,100141.58
2023-01-12T21:16:06.985Z,100141.77
2023-01-12T21:18:35.200Z,100141.11
2023-01-12T21:21:03.399Z,100137.27
2023-01-12T21:23:31.641Z,100125.36
2023-01-12T21:25:59.625Z,100129.60
2023-01-12T21:28:30.207Z,100117.05
2023-01-12T21:31:03.068Z,100120.22
2023-01-12T21:33:30.990Z,100119.53
2023-01-12T21:35:59.186Z,100112.13
2023-01-12T21:38:27.685Z,100110.27
2023-01-12T21:40:55.760Z,100110.96
2023-01-12T21:43:23.493Z,100112.50
2023-01-12T21:45:52.765Z,100113.88
2023-01-12T21:48:22.842Z,100114.58
2023-01-12T21:50:50.921Z,100118.51
2023-01-12T21:53:21.573Z,100116.30
2023-01-12T21:55:55.491Z,100116.67
2023-01-12T21:58:24.386Z,100114.36
2023-01-12T22:00:52.239Z,100110.67
2023-01-12T22:03:23.752Z,100110.45
2023-01-12T22:05:51.622Z,100101.91
2023-01-12T22:08:19.684Z,100107.85
2023-01-12T22:10:48.078Z,100101.54
2023-01-12T22:13:17.319Z,100103.52
2023-01-12T22:15:46.216Z,100094.05
2023-01-12T22:18:13.853Z,100093.61
2023-01-12T22:20:42.208Z,100087.33
2023-01-12T22:23:13.054Z,100081.64
2023-01-12T22:25:40.943Z,100080.91
2023-01-12T22:28:08.599Z,100080.92
2023-01-12T22:30:36.369Z,100081.36
2023-01-12T22:33:04.212Z,100083.40
2023-01-12T22:35:31.939Z,100083.23
2023-01-12T22:37:59.581Z,100085.13
2023-01-12T22:40:27.240Z,100082.96
2023-01-12T22:43:13.625Z,100077.27
2023-01-12T22:45:41.303Z,100072.89
2023-01-12T22:48:08.998Z,100070.98
2023-01-12T22:50:36.813Z,100067.29
2023-01-12T22:53:04.468Z,100068.77
2023-01-12T22:55:32.257Z,100064.13
2023-01-12T22:58:00.445Z,100058.04
2023-01-12T23:00:28.394Z,100049.65
2023-01-12T23:03:02.621Z,100050.23
2023-01-12T23:05:36.525Z,100048.77
2023-01-12T23:08:06.055Z,100053.27
2023-01-12T23:10:34.078Z,100051.48
2023-01-12T23:13:11.580Z,100055.35
2023-01-12T23:15:53.408Z,100055.62
2023-01-12T23:18:29.524Z,100056.23
2023-01-12T23:21:25.133Z,100061.36
2023-01-12T23:23:55.728Z,100061.98
2023-01-12T23:26:26.030Z,100061.73
2023-01-12T23:28:56.507Z,100060.48
2023-01-12T23:31:27.185Z,100055.29
2023-01-12T23:33:57.134Z,100054.66
2023-01-12T23:36:27.326Z,100054.34
2023-01-12T23:38:57.781Z,100059.30
2023-01-12T23:41:27.873Z,100057.14
2023-01-12T23:43:59.219Z,100059.04
2023-01-12T23:46:29.289Z,100058.73
2023-01-12T23:48:57.717Z,100060.77
2023-01-12T23:51:27.531Z,100063.79
2023-01-12T23:53:58.535Z,100065.52
2023-01-12T23:56:31.760Z,100062.02
2023-01-12T23:58:59.442Z,100064.59
